createdAt,value
2018-08-04T00:00:54.247Z,27.08
2018-08-04T00:03:23.242Z,27.19
2018-08-04T00:05:51.865Z,27.27
2018-08-04T00:08:20.535Z,27.29
2018-08-04T00:10:49.124Z,27.24
2018-08-04T00:13:17.741Z,27.19
2018-08-04T00:15:46.431Z,27.13
2018-08-04T00:18:18.301Z,26.89
2018-08-04T00:20:46.992Z,26.95
2018-08-04T00:23:16.355Z,26.97
2018-08-04T00:25:45.064Z,27.02
2018-08-04T00:28:13.667Z,27.04
2018-08-04T00:30:42.343Z,27.07
2018-08-04T00:33:10.989Z,27.00
2018-08-04T00:35:39.561Z,26.98
2018-08-04T00:38:08.192Z,26.99
2018-08-04T00:40:37.800Z,26.93
2018-08-04T00:43:06.458Z,26.70
2018-08-04T00:45:35.092Z,26.50
2018-08-04T00:48:03.754Z,26.49
2018-08-04T00:50:32.674Z,26.37
2018-08-04T00:53:01.332Z,26.40
2018-08-04T00:55:30.614Z,26.48
2018-08-04T00:57:59.345Z,26.50
2018-08-04T01:00:28.091Z,26.47
2018-08-04T01:02:56.733Z,26.48
2018-08-04T01:05:25.409Z,26.55
2018-08-04T01:07:54.066Z,26.50
2018-08-04T01:10:22.664Z,26.46
2018-08-04T01:12:53.349Z,26.44
2018-08-04T01:15:22.021Z,26.46
2018-08-04T01:17:50.692Z,26.41
2018-08-04T01:20:19.337Z,26.39
2018-08-04T01:22:47.954Z,26.33
2018-08-04T01:25:16.680Z,26.30
2018-08-04T01:27:45.289Z,26.29
2018-08-04T01:30:13.914Z,26.26
2018-08-04T01:32:43.184Z,26.18
2018-08-04T01:35:11.922Z,26.09
2018-08-04T01:37:40.536Z,26.10
2018-08-04T01:40:09.112Z,26.03
2018-08-04T01:42:37.723Z,26.06
2018-08-04T01:45:07.059Z,26.10
2018-08-04T01:47:35.676Z,26.02
2018-08-04T01:50:05.100Z,25.92
2018-08-04T01:52:33.795Z,25.75
2018-08-04T01:55:02.479Z,25.73
2018-08-04T01:57:31.198Z,25.71
2018-08-04T02:00:00.463Z,25.76
2018-08-04T02:02:29.243Z,25.67
2018-08-04T02:04:57.842Z,25.64
2018-08-04T02:07:26.459Z,25.61
2018-08-04T02:09:55.068Z,25.56
2018-08-04T02:12:23.762Z,25.62
2018-08-04T02:14:52.847Z,25.63
2018-08-04T02:17:21.456Z,25.59
2018-08-04T02:19:50.653Z,25.60
2018-08-04T02:22:19.562Z,25.58
2018-08-04T02:24:48.614Z,25.63
2018-08-04T02:27:17.242Z,25.58
2018-08-04T02:29:46.290Z,25.60
2018-08-04T02:32:14.920Z,25.49
2018-08-04T02:34:43.575Z,25.51
2018-08-04T02:37:12.117Z,25.47
2018-08-04T02:39:40.875Z,25.51
2018-08-04T02:42:09.994Z,25.44
2018-08-04T02:44:38.622Z,25.41
2018-08-04T02:47:07.230Z,25.42
2018-08-04T02:49:38.910Z,25.38
2018-08-04T02:52:08.765Z,25.43
2018-08-04T02:54:38.084Z,25.37
2018-08-04T02:57:06.909Z,25.36
2018-08-04T02:59:35.907Z,25.29
2018-08-04T03:02:04.526Z,25.25
2018-08-04T03:04:33.169Z,25.24
2018-08-04T03:07:01.775Z,25.15
2018-08-04T03:09:30.372Z,25.19
2018-08-04T03:11:59.007Z,25.17
2018-08-04T03:14:27.605Z,25.14
2018-08-04T03:16:57.251Z,25.08
2018-08-04T03:19:26.596Z,24.91
2018-08-04T03:21:55.294Z,24.75
2018-08-04T03:24:25.264Z,24.80
2018-08-04T03:26:54.093Z,24.81
2018-08-04T03:29:23.544Z,24.78
2018-08-04T03:31:52.264Z,24.77
2018-08-04T03:34:21.568Z,24.76
2018-08-04T03:36:50.278Z,24.76
2018-08-04T03:39:19.759Z,24.81
2018-08-04T03:41:48.476Z,24.80
2018-08-04T03:44:17.044Z,24.83
2018-08-04T03:46:47.012Z,24.88
2018-08-04T03:49:17.067Z,24.87
2018-08-04T03:51:46.519Z,24.82
2018-08-04T03:54:17.092Z,24.74
2018-08-04T03:56:45.765Z,24.58
2018-08-04T03:59:15.090Z,24.55
2018-08-04T04:01:43.743Z,24.54
2018-08-04T04:04:13.157Z,24.56
2018-08-04T04:06:41.885Z,24.51
2018-08-04T04:09:11.396Z,24.34
2018-08-04T04:11:40.594Z,24.33
2018-08-04T04:14:09.194Z,24.37
2018-08-04T04:16:37.943Z,24.28
2018-08-04T04:19:06.554Z,24.28
2018-08-04T04:21:35.406Z,24.29
2018-08-04T04:24:05.007Z,24.39
2018-08-04T04:26:33.945Z,24.20
2018-08-04T04:29:02.911Z,24.42
2018-08-04T04:31:31.531Z,24.43
2018-08-04T04:34:00.491Z,24.41
2018-08-04T04:36:29.087Z,24.42
2018-08-04T04:38:57.784Z,24.39
2018-08-04T04:41:26.994Z,24.35
2018-08-04T04:43:55.630Z,24.43
2018-08-04T04:46:24.279Z,24.44
2018-08-04T04:48:53.425Z,24.47
2018-08-04T04:51:22.018Z,24.53
2018-08-04T04:53:50.648Z,24.58
2018-08-04T04:56:19.273Z,24.59
2018-08-04T04:58:47.902Z,24.63
2018-08-04T05:01:16.492Z,24.62
2018-08-04T05:03:46.256Z,24.65
2018-08-04T05:06:14.973Z,24.59
2018-08-04T05:08:46.193Z,24.60
2018-08-04T05:11:15.110Z,24.65
2018-08-04T05:13:43.767Z,24.70
2018-08-04T05:16:12.536Z,24.77
2018-08-04T05:18:41.162Z,24.85
2018-08-04T05:21:09.909Z,24.89
2018-08-04T05:23:38.569Z,24.94
2018-08-04T05:26:07.241Z,24.92
2018-08-04T05:28:35.819Z,24.94
2018-08-04T05:31:05.087Z,24.88
2018-08-04T05:33:33.686Z,24.88
2018-08-04T05:36:02.390Z,24.96
2018-08-04T05:38:31.719Z,25.05
2018-08-04T05:41:00.466Z,25.07
2018-08-04T05:43:29.323Z,25.21
2018-08-04T05:45:58.097Z,25.18
2018-08-04T05:48:26.804Z,25.27
2018-08-04T05:50:56.057Z,25.34
2018-08-04T05:53:24.900Z,25.43
2018-08-04T05:55:53.478Z,25.55
2018-08-04T05:58:22.168Z,25.59
2018-08-04T06:00:50.830Z,25.70
2018-08-04T06:03:19.515Z,25.79
2018-08-04T06:05:48.175Z,25.90
2018-08-04T06:08:16.957Z,26.00
2018-08-04T06:10:46.807Z,26.88
2018-08-04T06:13:15.452Z,28.61
2018-08-04T06:15:44.165Z,29.95
2018-08-04T06:18:13.578Z,30.95
2018-08-04T06:20:42.181Z,31.74
2018-08-04T06:23:10.776Z,32.39
2018-08-04T06:25:39.363Z,32.68
2018-08-04T06:28:08.937Z,32.21
2018-08-04T06:30:37.738Z,30.37
2018-08-04T06:33:06.238Z,29.46
2018-08-04T06:35:35.606Z,28.97
2018-08-04T06:38:04.425Z,28.67
2018-08-04T06:40:33.855Z,28.08
2018-08-04T06:43:03.011Z,27.82
2018-08-04T06:45:33.685Z,27.52
2018-08-04T06:48:02.266Z,27.29
2018-08-04T06:50:30.944Z,27.23
2018-08-04T06:53:00.292Z,27.17
2018-08-04T06:55:28.942Z,27.31
2018-08-04T06:57:57.651Z,27.41
2018-08-04T07:00:26.373Z,27.36
2018-08-04T07:02:55.617Z,27.44
2018-08-04T07:05:24.327Z,27.70
2018-08-04T07:07:52.903Z,27.60
2018-08-04T07:10:21.538Z,27.56
2018-08-04T07:12:51.089Z,27.39
2018-08-04T07:15:20.381Z,27.71
2018-08-04T07:17:49.023Z,27.97
2018-08-04T07:20:17.764Z,28.22
2018-08-04T07:22:46.477Z,28.41
2018-08-04T07:25:15.714Z,28.58
2018-08-04T07:27:44.338Z,28.79
2018-08-04T07:30:14.437Z,29.00
2018-08-04T07:32:44.201Z,29.19
2018-08-04T07:35:12.927Z,29.18
2018-08-04T07:37:42.616Z,29.10
2018-08-04T07:40:11.690Z,29.28
2018-08-04T07:42:40.863Z,29.48
2018-08-04T07:45:10.396Z,29.64
2018-08-04T07:47:39.944Z,29.78
2018-08-04T07:50:08.632Z,29.91
2018-08-04T07:52:37.272Z,29.91
2018-08-04T07:55:07.029Z,30.05
2018-08-04T07:57:35.672Z,30.22
2018-08-04T08:00:05.047Z,30.30
2018-08-04T08:02:33.920Z,30.41
2018-08-04T08:05:02.694Z,30.50
2018-08-04T08:07:31.282Z,30.53
2018-08-04T08:09:59.925Z,30.68
2018-08-04T08:12:28.647Z,30.80
2018-08-04T08:14:57.756Z,30.79
2018-08-04T08:17:26.975Z,30.87
2018-08-04T08:19:55.915Z,30.98
2018-08-04T08:22:35.516Z,30.95
2018-08-04T08:25:04.744Z,30.99
2018-08-04T08:27:33.634Z,31.19
2018-08-04T08:30:02.350Z,31.09
2018-08-04T08:32:31.093Z,31.19
2018-08-04T08:34:59.972Z,31.37
2018-08-04T08:37:29.233Z,31.64
2018-08-04T08:39:58.202Z,31.71
2018-08-04T08:42:26.907Z,31.76
2018-08-04T08:44:56.372Z,31.79
2018-08-04T08:47:27.779Z,31.94
2018-08-04T08:49:56.528Z,31.85
2018-08-04T08:52:25.603Z,31.88
2018-08-04T08:54:54.458Z,32.06
2018-08-04T08:57:23.158Z,32.31
2018-08-04T08:59:51.859Z,32.42
2018-08-04T09:02:21.348Z,32.60
2018-08-04T09:04:50.005Z,32.68
2018-08-04T09:07:18.707Z,32.62
2018-08-04T09:09:47.893Z,32.66
2018-08-04T09:12:16.615Z,32.88
2018-08-04T09:14:46.159Z,32.93
2018-08-04T09:17:14.786Z,33.02
2018-08-04T09:19:44.347Z,33.18
2018-08-04T09:22:13.465Z,33.24
2018-08-04T09:24:42.123Z,33.38
2018-08-04T09:27:10.930Z,33.51
2018-08-04T09:29:39.493Z,33.60
2018-08-04T09:32:08.846Z,33.54
2018-08-04T09:34:37.511Z,33.65
2018-08-04T09:37:06.265Z,33.61
2018-08-04T09:39:35.722Z,33.68
2018-08-04T09:42:05.720Z,33.87
2018-08-04T09:44:34.647Z,33.92
2018-08-04T09:47:03.301Z,34.10
2018-08-04T09:49:32.256Z,34.16
2018-08-04T09:52:00.923Z,34.19
2018-08-04T09:54:29.758Z,34.27
2018-08-04T09:56:58.433Z,34.32
2018-08-04T09:59:27.667Z,34.49
2018-08-04T10:02:27.397Z,34.65
2018-08-04T10:04:57.167Z,34.62
2018-08-04T10:07:25.958Z,34.64
2018-08-04T10:09:54.715Z,34.71
2018-08-04T10:12:23.412Z,34.84
2018-08-04T10:14:52.669Z,34.98
2018-08-04T10:17:21.303Z,35.07
2018-08-04T10:19:50.049Z,35.14
2018-08-04T10:22:18.656Z,35.20
2018-08-04T10:24:47.313Z,35.30
2018-08-04T10:27:16.665Z,35.43
2018-08-04T10:29:45.301Z,35.39
2018-08-04T10:32:15.008Z,35.31
2018-08-04T10:34:44.263Z,35.48
2018-08-04T10:37:12.855Z,35.56
2018-08-04T10:39:41.555Z,35.62
2018-08-04T10:42:10.860Z,35.68
2018-08-04T10:44:39.532Z,35.54
2018-08-04T10:47:08.145Z,35.55
2018-08-04T10:49:36.889Z,35.64
2018-08-04T10:52:05.557Z,35.83
2018-08-04T10:54:34.358Z,35.91
2018-08-04T10:57:03.098Z,36.00
2018-08-04T10:59:32.508Z,35.90
2018-08-04T11:02:01.341Z,35.90
2018-08-04T11:04:30.551Z,36.14
2018-08-04T11:06:59.155Z,36.18
2018-08-04T11:09:27.902Z,36.34
2018-08-04T11:11:56.528Z,36.47
2018-08-04T11:14:25.181Z,36.60
2018-08-04T11:16:53.856Z,36.31
2018-08-04T11:19:22.512Z,36.34
2018-08-04T11:21:51.776Z,36.52
2018-08-04T11:24:20.439Z,36.56
2018-08-04T11:26:49.113Z,36.58
2018-08-04T11:29:17.733Z,36.73
2018-08-04T11:31:46.411Z,36.85
2018-08-04T11:34:15.833Z,36.66
2018-08-04T11:36:44.441Z,36.79
2018-08-04T11:39:13.122Z,36.80
2018-08-04T11:41:42.606Z,36.74
2018-08-04T11:44:11.379Z,36.87
2018-08-04T11:46:40.064Z,36.84
2018-08-04T11:49:09.466Z,36.82
2018-08-04T11:51:38.242Z,36.89
2018-08-04T11:54:07.146Z,36.94
2018-08-04T11:56:35.800Z,37.12
2018-08-04T11:59:04.476Z,37.07
2018-08-04T12:01:33.885Z,37.22
2018-08-04T12:04:02.656Z,37.36
2018-08-04T12:06:31.464Z,37.51
2018-08-04T12:09:00.549Z,37.31
2018-08-04T12:11:29.191Z,37.43
2018-08-04T12:13:58.499Z,37.65
2018-08-04T12:16:27.168Z,37.58
2018-08-04T12:18:56.416Z,37.82
2018-08-04T12:21:26.783Z,37.86
2018-08-04T12:23:55.464Z,37.91
2018-08-04T12:26:24.260Z,37.91
2018-08-04T12:28:52.999Z,37.87
2018-08-04T12:31:21.698Z,37.67
2018-08-04T12:33:50.282Z,37.68
2018-08-04T12:36:19.647Z,37.70
2018-08-04T12:38:48.351Z,37.79
2018-08-04T12:41:16.987Z,37.82
2018-08-04T12:43:45.592Z,37.99
2018-08-04T12:46:14.394Z,38.65
2018-08-04T12:48:43.419Z,40.11
2018-08-04T12:51:12.968Z,41.56
2018-08-04T12:53:41.660Z,42.35
2018-08-04T12:56:10.334Z,42.81
2018-08-04T12:58:39.656Z,42.86
2018-08-04T13:01:09.360Z,43.33
2018-08-04T13:03:37.995Z,43.94
2018-08-04T13:06:07.064Z,44.79
2018-08-04T13:08:35.864Z,45.00
2018-08-04T13:11:04.572Z,45.19
2018-08-04T13:13:33.227Z,45.42
2018-08-04T13:16:01.910Z,44.82
2018-08-04T13:18:31.139Z,45.32
2018-08-04T13:20:59.804Z,45.64
2018-08-04T13:23:28.466Z,46.26
2018-08-04T13:25:57.118Z,46.21
2018-08-04T13:28:25.844Z,46.07
2018-08-04T13:30:55.258Z,45.91
2018-08-04T13:33:23.935Z,46.01
2018-08-04T13:35:52.572Z,45.73
2018-08-04T13:38:21.521Z,46.22
2018-08-04T13:40:50.214Z,45.42
2018-08-04T13:43:18.884Z,45.38
2018-08-04T13:45:47.553Z,44.80
2018-08-04T13:48:16.741Z,43.71
2018-08-04T13:50:45.385Z,43.87
2018-08-04T13:53:14.819Z,43.40
2018-08-04T13:55:43.476Z,42.57
2018-08-04T13:58:12.127Z,42.02
2018-08-04T14:00:40.841Z,41.86
2018-08-04T14:03:10.161Z,41.44
2018-08-04T14:05:38.800Z,41.61
2018-08-04T14:08:07.473Z,41.48
2018-08-04T14:10:37.398Z,42.22
2018-08-04T14:13:06.389Z,43.10
2018-08-04T14:15:35.997Z,43.80
2018-08-04T14:18:04.714Z,44.08
2018-08-04T14:20:33.304Z,44.22
2018-08-04T14:23:02.049Z,43.74
2018-08-04T14:25:30.724Z,42.46
2018-08-04T14:28:02.421Z,42.27
2018-08-04T14:30:31.044Z,42.00
2018-08-04T14:33:00.028Z,42.40
2018-08-04T14:35:28.641Z,43.10
2018-08-04T14:37:57.253Z,42.90
2018-08-04T14:40:25.991Z,42.66
2018-08-04T14:42:54.729Z,42.80
2018-08-04T14:45:23.456Z,42.06
2018-08-04T14:47:52.210Z,42.59
2018-08-04T14:50:20.900Z,42.75
2018-08-04T14:52:49.557Z,42.38
2018-08-04T14:55:18.247Z,41.93
2018-08-04T14:57:47.757Z,41.41
2018-08-04T15:00:16.923Z,41.75
2018-08-04T15:02:45.938Z,41.89
2018-08-04T15:05:14.634Z,42.27
2018-08-04T15:07:43.281Z,41.98
2018-08-04T15:10:12.057Z,41.74
2018-08-04T15:12:41.288Z,41.51
2018-08-04T15:15:10.673Z,41.53
2018-08-04T15:17:39.376Z,41.27
2018-08-04T15:20:08.659Z,41.08
2018-08-04T15:22:37.613Z,41.08
2018-08-04T15:25:08.353Z,41.10
2018-08-04T15:27:37.033Z,40.88
2018-08-04T15:30:06.112Z,40.61
2018-08-04T15:32:34.791Z,40.47
2018-08-04T15:35:03.515Z,40.28
2018-08-04T15:37:32.360Z,40.09
2018-08-04T15:40:01.039Z,39.87
2018-08-04T15:42:29.695Z,39.57
2018-08-04T15:44:58.290Z,39.74
2018-08-04T15:47:26.934Z,39.73
2018-08-04T15:49:55.670Z,39.90
2018-08-04T15:52:24.284Z,40.06
2018-08-04T15:54:53.014Z,39.52
2018-08-04T15:57:21.970Z,39.51
2018-08-04T15:59:50.685Z,39.51
2018-08-04T16:02:19.307Z,38.95
2018-08-04T16:04:47.982Z,38.57
2018-08-04T16:07:16.641Z,38.56
2018-08-04T16:09:45.314Z,38.70
2018-08-04T16:12:14.008Z,38.71
2018-08-04T16:14:42.699Z,38.81
2018-08-04T16:17:11.529Z,38.47
2018-08-04T16:19:40.224Z,38.28
2018-08-04T16:22:08.844Z,38.04
2018-08-04T16:24:37.490Z,37.97
2018-08-04T16:27:07.423Z,37.65
2018-08-04T16:29:36.089Z,37.39
2018-08-04T16:32:05.184Z,37.13
2018-08-04T16:34:34.051Z,37.32
2018-08-04T16:37:02.953Z,37.23
2018-08-04T16:39:32.538Z,37.26
2018-08-04T16:42:01.290Z,36.87
2018-08-04T16:44:29.924Z,36.75
2018-08-04T16:46:59.430Z,36.90
2018-08-04T16:49:28.190Z,36.89
2018-08-04T16:51:57.620Z,36.74
2018-08-04T16:54:26.501Z,37.00
2018-08-04T16:56:55.459Z,36.85
2018-08-04T16:59:24.125Z,36.85
2018-08-04T17:01:52.845Z,36.68
2018-08-04T17:04:22.231Z,36.46
2018-08-04T17:06:50.914Z,36.32
2018-08-04T17:09:20.175Z,36.15
2018-08-04T17:11:48.872Z,35.98
2018-08-04T17:14:17.552Z,35.96
2018-08-04T17:16:46.947Z,35.87
2018-08-04T17:19:15.532Z,35.83
2018-08-04T17:21:45.246Z,35.64
2018-08-04T17:24:13.947Z,35.71
2018-08-04T17:26:43.275Z,35.61
2018-08-04T17:29:11.885Z,35.55
2018-08-04T17:31:41.217Z,35.35
2018-08-04T17:34:09.780Z,35.20
2018-08-04T17:36:38.457Z,35.22
2018-08-04T17:39:09.135Z,35.31
2018-08-04T17:41:37.900Z,35.26
2018-08-04T17:44:06.969Z,35.22
2018-08-04T17:46:35.622Z,35.26
2018-08-04T17:49:04.335Z,35.26
2018-08-04T17:51:33.803Z,35.32
2018-08-04T17:54:02.444Z,35.26
2018-08-04T17:56:31.134Z,35.29
2018-08-04T17:58:59.779Z,35.23
2018-08-04T18:01:28.417Z,35.11
2018-08-04T18:03:57.640Z,35.05
2018-08-04T18:06:26.369Z,34.91
2018-08-04T18:08:55.514Z,34.83
2018-08-04T18:11:24.202Z,34.78
2018-08-04T18:13:53.885Z,34.81
2018-08-04T18:16:22.530Z,34.82
2018-08-04T18:18:51.943Z,34.71
2018-08-04T18:21:20.602Z,34.64
2018-08-04T18:23:49.372Z,34.65
2018-08-04T18:26:18.862Z,34.65
2018-08-04T18:28:47.543Z,34.56
2018-08-04T18:31:16.180Z,34.53
2018-08-04T18:33:44.826Z,34.52
2018-08-04T18:36:13.758Z,34.47
2018-08-04T18:38:42.340Z,34.43
2018-08-04T18:41:11.003Z,34.37
2018-08-04T18:43:39.654Z,34.33
2018-08-04T18:46:08.281Z,34.28
2018-08-04T18:48:37.549Z,34.18
2018-08-04T18:51:06.270Z,34.19
2018-08-04T18:53:34.958Z,34.16
2018-08-04T18:56:04.433Z,34.11
2018-08-04T18:58:33.955Z,34.07
2018-08-04T19:01:02.613Z,33.97
2018-08-04T19:03:31.971Z,33.94
2018-08-04T19:06:00.666Z,33.90
2018-08-04T19:08:29.373Z,33.85
2018-08-04T19:10:58.133Z,33.72
2018-08-04T19:13:26.869Z,33.63
2018-08-04T19:15:55.776Z,33.47
2018-08-04T19:18:24.457Z,33.44
2018-08-04T19:20:53.824Z,33.27
2018-08-04T19:23:22.566Z,33.17
2018-08-04T19:25:51.207Z,33.17
2018-08-04T19:28:20.608Z,33.18
2018-08-04T19:30:49.264Z,33.13
2018-08-04T19:33:18.953Z,33.02
2018-08-04T19:35:48.272Z,32.91
2018-08-04T19:38:16.929Z,32.84
2018-08-04T19:40:45.530Z,32.77
2018-08-04T19:43:14.200Z,32.68
2018-08-04T19:45:43.774Z,32.56
2018-08-04T19:48:12.457Z,32.59
2018-08-04T19:50:41.215Z,32.57
2018-08-04T19:53:10.509Z,32.59
2018-08-04T19:55:39.882Z,32.55
2018-08-04T19:58:08.668Z,32.47
2018-08-04T20:00:37.937Z,32.30
2018-08-04T20:03:07.424Z,32.25
2018-08-04T20:05:36.095Z,32.19
2018-08-04T20:08:04.894Z,32.04
2018-08-04T20:10:34.762Z,32.00
2018-08-04T20:13:03.696Z,31.94
2018-08-04T20:15:32.402Z,31.80
2018-08-04T20:18:01.044Z,31.67
2018-08-04T20:20:30.684Z,31.58
2018-08-04T20:23:00.055Z,31.50
2018-08-04T20:25:28.695Z,31.50
2018-08-04T20:27:58.072Z,31.36
2018-08-04T20:30:26.694Z,31.19
2018-08-04T20:32:55.389Z,31.13
2018-08-04T20:35:24.079Z,31.14
2018-08-04T20:37:53.590Z,31.05
2018-08-04T20:40:22.358Z,31.05
2018-08-04T20:42:51.079Z,31.03
2018-08-04T20:45:19.758Z,30.90
2018-08-04T20:47:48.629Z,30.86
2018-08-04T20:50:17.232Z,30.92
2018-08-04T20:52:45.983Z,30.82
2018-08-04T20:55:14.559Z,30.80
2018-08-04T20:57:43.979Z,30.70
2018-08-04T21:00:12.610Z,30.64
2018-08-04T21:02:41.270Z,30.59
2018-08-04T21:05:09.984Z,30.54
2018-08-04T21:07:39.293Z,30.50
2018-08-04T21:10:08.043Z,30.44
2018-08-04T21:12:37.181Z,30.40
2018-08-04T21:15:05.899Z,30.41
2018-08-04T21:17:34.474Z,30.45
2018-08-04T21:20:03.251Z,30.46
2018-08-04T21:22:32.501Z,30.42
2018-08-04T21:25:01.963Z,30.38
2018-08-04T21:27:30.616Z,30.29
2018-08-04T21:29:59.324Z,30.19
2018-08-04T21:32:27.982Z,30.14
2018-08-04T21:34:56.794Z,30.01
2018-08-04T21:37:25.457Z,29.97
2018-08-04T21:39:54.127Z,29.93
2018-08-04T21:42:25.779Z,29.87
2018-08-04T21:44:54.450Z,29.80
2018-08-04T21:47:23.076Z,29.78
2018-08-04T21:49:51.724Z,29.86
2018-08-04T21:52:20.445Z,29.83
2018-08-04T21:54:49.883Z,29.81
2018-08-04T21:57:18.496Z,29.79
2018-08-04T21:59:47.175Z,29.55
2018-08-04T22:02:15.886Z,29.51
2018-08-04T22:04:45.101Z,29.49
2018-08-04T22:07:50.792Z,29.38
2018-08-04T22:10:19.407Z,29.40
2018-08-04T22:12:48.089Z,29.44
2018-08-04T22:15:17.437Z,29.41
2018-08-04T22:17:46.086Z,29.44
2018-08-04T22:20:16.787Z,29.41
2018-08-04T22:22:45.469Z,29.32
2018-08-04T22:25:15.409Z,29.27
2018-08-04T22:27:44.146Z,29.11
2018-08-04T22:30:14.898Z,29.00
2018-08-04T22:32:44.177Z,29.10
2018-08-04T22:35:12.840Z,29.15
2018-08-04T22:37:42.306Z,29.11
2018-08-04T22:40:11.920Z,29.10
2018-08-04T22:42:40.892Z,29.06
2018-08-04T22:46:22.220Z,29.04
2018-08-04T22:48:52.088Z,28.79
2018-08-04T22:51:28.483Z,28.74
2018-08-04T22:53:57.705Z,28.73
2018-08-04T22:56:26.697Z,28.70
2018-08-04T22:58:55.351Z,28.31
2018-08-04T23:01:24.217Z,28.44
2018-08-04T23:03:53.118Z,28.47
2018-08-04T23:06:21.755Z,28.52
2018-08-04T23:08:51.297Z,28.54
2018-08-04T23:11:20.876Z,28.49
2018-08-04T23:13:49.509Z,28.47
2018-08-04T23:16:18.179Z,28.45
2018-08-04T23:18:46.894Z,28.38
2018-08-04T23:21:16.516Z,28.32
2018-08-04T23:23:45.195Z,28.38
2018-08-04T23:26:13.782Z,28.25
2018-08-04T23:28:42.575Z,28.15
2018-08-04T23:31:11.225Z,28.16
2018-08-04T23:33:39.832Z,28.09
2018-08-04T23:36:08.481Z,28.05
2018-08-04T23:38:37.100Z,27.98
2018-08-04T23:41:05.902Z,27.92
2018-08-04T23:43:34.595Z,27.96
2018-08-04T23:46:03.533Z,27.97
2018-08-04T23:48:32.211Z,27.96
2018-08-04T23:51:00.851Z,27.94
2018-08-04T23:53:30.410Z,27.95
2018-08-04T23:55:59.059Z,27.84
2018-08-04T23:58:27.642Z,27.73
